Time;durP1;ratioP1;P1;durP2;ratioP2;P2;SDS_P1;SDS_P2;PMS_P1;PMS_P2;Temp;Humidity;BMP_temperature;BMP_pressure;BME280_temperature;BME280_humidity;BME280_pressure;Samples;Min_cycle;Max_cycle;Signal;HPM_P1;HPM_P2
2021/06/19 00:00:06;;;;;;;;;;;26.90;43.60;;;;;;1532917;76;1934;-71
2021/06/19 00:02:08;;;;;;;;;;;26.90;43.60;;;;;;1538368;76;689;-69
2021/06/19 00:04:10;;;;;;;;;;;26.90;43.50;;;;;;1538115;76;701;-70
2021/06/19 00:06:12;;;;;;;;;;;26.90;43.40;;;;;;1539477;76;763;-70
2021/06/19 00:08:14;;;;;;;;;;;26.90;43.60;;;;;;1537281;75;1180;-70
2021/06/19 00:10:16;;;;;;;;;;;26.90;43.50;;;;;;1537045;76;711;-72
2021/06/19 00:12:19;;;;;;;;;;;26.90;43.40;;;;;;1539436;75;755;-72
2021/06/19 00:14:20;;;;;;;;;;;26.90;43.20;;;;;;1543359;75;728;-72
2021/06/19 00:16:22;;;;;;;;;;;26.90;43.10;;;;;;1544523;75;657;-71
2021/06/19 00:18:24;;;;;;;;;;;26.90;43.60;;;;;;1545382;75;1161;-71
2021/06/19 00:20:26;;;;;;;;;;;27.00;44.30;;;;;;1541208;75;1946;-72
2021/06/19 00:22:28;;;;;;;;;;;27.00;44.50;;;;;;1540428;75;730;-71
2021/06/19 00:24:32;;;;;;;;;;;27.00;44.40;;;;;;1543744;75;673;-71
2021/06/19 00:26:34;;;;;;;;;;;26.90;43.60;;;;;;1544507;75;763;-72
2021/06/19 00:28:35;;;;;;;;;;;26.90;43.70;;;;;;1545020;76;1148;-71
2021/06/19 00:30:37;;;;;;;;;;;26.90;43.60;;;;;;1543581;75;725;-72
2021/06/19 00:32:39;;;;;;;;;;;26.90;43.60;;;;;;1546120;75;658;-71
2021/06/19 00:34:41;;;;;;;;;;;26.90;43.70;;;;;;1544156;75;743;-74
2021/06/19 00:36:43;;;;;;;;;;;26.90;43.60;;;;;;1544818;76;745;-74
2021/06/19 00:38:45;;;;;;;;;;;26.90;43.70;;;;;;1543449;76;1149;-72
2021/06/19 00:40:47;;;;;;;;;;;26.90;43.70;;;;;;1543793;75;1945;-73
2021/06/19 00:42:56;;;;;;;;;;;26.90;43.60;;;;;;1538204;75;715;-70
2021/06/19 00:44:58;;;;;;;;;;;26.90;43.60;;;;;;1538973;75;706;-70
2021/06/19 00:47:00;;;;;;;;;;;26.90;43.60;;;;;;1543846;75;724;-72
2021/06/19 00:49:02;;;;;;;;;;;26.90;43.80;;;;;;1543341;76;1092;-72
2021/06/19 00:51:04;;;;;;;;;;;26.90;43.70;;;;;;1543763;76;704;-71
2021/06/19 00:53:06;;;;;;;;;;;26.90;43.60;;;;;;1544092;75;736;-73
2021/06/19 00:55:08;;;;;;;;;;;26.90;43.60;;;;;;1541588;75;757;-75
2021/06/19 00:57:10;;;;;;;;;;;27.00;44.10;;;;;;1543508;75;716;-74
2021/06/19 00:59:12;;;;;;;;;;;26.90;43.90;;;;;;1546062;75;1945;-76
2021/06/19 01:01:14;;;;;;;;;;;26.90;44.00;;;;;;1532651;76;698;-70
2021/06/19 01:03:16;;;;;;;;;;;26.90;44.00;;;;;;1537981;76;708;-72
2021/06/19 01:05:18;;;;;;;;;;;27.00;44.70;;;;;;1545015;75;731;-73
2021/06/19 01:07:19;;;;;;;;;;;26.90;44.00;;;;;;1543228;75;727;-72
2021/06/19 01:09:21;;;;;;;;;;;26.90;44.00;;;;;;1541748;75;1160;-72
2021/06/19 01:11:23;;;;;;;;;;;26.90;43.90;;;;;;1544714;75;752;-75
2021/06/19 01:13:25;;;;;;;;;;;27.00;44.60;;;;;;1543579;75;811;-73
2021/06/19 01:15:28;;;;;;;;;;;27.00;44.60;;;;;;1543863;76;748;-72
2021/06/19 01:17:30;;;;;;;;;;;27.00;44.60;;;;;;1542569;75;1156;-73
2021/06/19 01:19:32;;;;;;;;;;;26.90;44.20;;;;;;1543411;75;1936;-73
2021/06/19 01:21:34;;;;;;;;;;;27.00;45.20;;;;;;1548134;76;772;-72
2021/06/19 01:23:36;;;;;;;;;;;27.00;45.30;;;;;;1543958;75;701;-74
2021/06/19 01:25:38;;;;;;;;;;;27.00;45.20;;;;;;1546545;76;728;-71
2021/06/19 01:27:40;;;;;;;;;;;27.00;45.20;;;;;;1543936;75;1168;-71
2021/06/19 01:29:42;;;;;;;;;;;27.00;45.40;;;;;;1546192;75;717;-72
2021/06/19 01:31:44;;;;;;;;;;;27.00;45.30;;;;;;1546936;76;709;-72
2021/06/19 01:33:46;;;;;;;;;;;27.00;45.00;;;;;;1546347;76;739;-73
2021/06/19 01:35:48;;;;;;;;;;;27.00;45.00;;;;;;1539629;76;733;-72
2021/06/19 01:37:50;;;;;;;;;;;27.00;44.90;;;;;;1542993;75;1238;-73
2021/06/19 01:39:52;;;;;;;;;;;27.00;44.90;;;;;;1539983;75;1973;-73
2021/06/19 01:41:54;;;;;;;;;;;26.90;44.30;;;;;;1546375;76;734;-72
2021/06/19 01:44:00;;;;;;;;;;;27.00;45.20;;;;;;1541244;75;719;-73
2021/06/19 01:46:01;;;;;;;;;;;27.00;45.10;;;;;;1540651;75;630;-75
2021/06/19 01:48:04;;;;;;;;;;;27.00;45.20;;;;;;1546306;75;1148;-72
2021/06/19 01:50:07;;;;;;;;;;;27.00;45.60;;;;;;1546191;75;770;-75
2021/06/19 01:52:09;;;;;;;;;;;26.90;44.90;;;;;;1541859;75;712;-71
2021/06/19 01:54:10;;;;;;;;;;;27.00;45.60;;;;;;1541224;76;720;-72
2021/06/19 01:56:12;;;;;;;;;;;27.10;45.70;;;;;;1541364;75;686;-72
2021/06/19 01:58:14;;;;;;;;;;;27.00;45.80;;;;;;1543916;75;1089;-74
2021/06/19 02:00:17;;;;;;;;;;;27.00;45.90;;;;;;1521630;77;1963;-71
2021/06/19 02:02:20;;;;;;;;;;;27.00;45.90;;;;;;1542982;76;730;-72
2021/06/19 02:04:22;;;;;;;;;;;27.00;45.80;;;;;;1545454;75;696;-73
2021/06/19 02:06:24;;;;;;;;;;;27.00;45.70;;;;;;1557307;75;721;-72
2021/06/19 02:08:26;;;;;;;;;;;27.00;45.90;;;;;;1548873;75;1136;-71
2021/06/19 02:10:29;;;;;;;;;;;27.00;45.80;;;;;;1551322;75;705;-71
2021/06/19 02:12:31;;;;;;;;;;;27.00;45.80;;;;;;1545269;75;688;-72
2021/06/19 02:14:32;;;;;;;;;;;27.00;45.60;;;;;;1541655;75;715;-72
2021/06/19 02:16:34;;;;;;;;;;;27.00;46.00;;;;;;1554622;75;688;-72
2021/06/19 02:18:36;;;;;;;;;;;26.90;45.30;;;;;;1547701;75;1187;-72
2021/06/19 02:20:38;;;;;;;;;;;26.90;45.10;;;;;;1552668;75;1930;-72
2021/06/19 02:22:40;;;;;;;;;;;27.00;45.80;;;;;;1546124;75;705;-73
2021/06/19 02:24:42;;;;;;;;;;;26.90;45.00;;;;;;1548927;75;719;-73
2021/06/19 02:26:44;;;;;;;;;;;27.00;46.00;;;;;;1565543;75;712;-74
2021/06/19 02:28:46;;;;;;;;;;;27.00;45.80;;;;;;1554244;75;1132;-73
2021/06/19 02:30:48;;;;;;;;;;;27.00;46.10;;;;;;1548474;76;701;-73
2021/06/19 02:32:51;;;;;;;;;;;27.00;46.20;;;;;;1539630;75;738;-76
2021/06/19 02:34:53;;;;;;;;;;;26.90;45.50;;;;;;1557165;75;696;-73
2021/06/19 02:36:55;;;;;;;;;;;27.00;46.20;;;;;;1544297;75;727;-76
2021/06/19 02:38:56;;;;;;;;;;;27.10;46.30;;;;;;1556034;75;1117;-75
2021/06/19 02:40:58;;;;;;;;;;;27.00;46.40;;;;;;1551847;75;1940;-76
2021/06/19 02:43:00;;;;;;;;;;;27.00;46.30;;;;;;1541171;75;720;-71
2021/06/19 02:45:10;;;;;;;;;;;27.00;46.30;;;;;;1538345;76;703;-78
2021/06/19 02:47:06;;;;;;;;;;;27.00;46.30;;;;;;1551414;75;1028;-75
2021/06/19 02:49:08;;;;;;;;;;;27.00;46.60;;;;;;1547122;75;1125;-75
2021/06/19 02:51:10;;;;;;;;;;;27.00;46.50;;;;;;1546463;75;774;-76
2021/06/19 02:53:12;;;;;;;;;;;26.90;45.90;;;;;;1548637;75;739;-76
2021/06/19 02:55:20;;;;;;;;;;;26.90;45.70;;;;;;1542415;75;698;-77
2021/06/19 02:57:22;;;;;;;;;;;27.00;46.30;;;;;;1548452;75;692;-74
2021/06/19 02:59:24;;;;;;;;;;;27.00;46.20;;;;;;1551732;75;1147;-74
2021/06/19 03:01:26;;;;;;;;;;;27.00;46.20;;;;;;1542356;75;1948;-75
2021/06/19 03:03:28;;;;;;;;;;;27.00;46.30;;;;;;1543891;75;878;-75
2021/06/19 03:05:30;;;;;;;;;;;27.00;46.40;;;;;;1559396;75;842;-79
2021/06/19 03:07:32;;;;;;;;;;;27.00;46.60;;;;;;1554965;75;1169;-75
2021/06/19 03:09:34;;;;;;;;;;;27.00;46.70;;;;;;1561886;75;730;-76
2021/06/19 03:11:36;;;;;;;;;;;27.00;46.50;;;;;;1552313;74;656;-75
2021/06/19 03:13:37;;;;;;;;;;;26.90;45.50;;;;;;1552087;75;627;-75
2021/06/19 03:15:39;;;;;;;;;;;27.00;46.40;;;;;;1552769;75;654;-76
2021/06/19 03:17:41;;;;;;;;;;;27.00;46.40;;;;;;1536643;75;1167;-74
2021/06/19 03:19:43;;;;;;;;;;;27.00;46.10;;;;;;1553766;75;769;-70
2021/06/19 03:21:45;;;;;;;;;;;27.00;46.40;;;;;;1552849;75;1940;-71
2021/06/19 03:23:47;;;;;;;;;;;27.00;46.40;;;;;;1555548;75;815;-71
2021/06/19 03:25:49;;;;;;;;;;;27.00;46.30;;;;;;1549435;75;716;-72
2021/06/19 03:27:51;;;;;;;;;;;27.00;46.40;;;;;;1557350;75;1174;-72
2021/06/19 03:29:52;;;;;;;;;;;27.00;46.10;;;;;;1552552;75;716;-71
2021/06/19 03:31:54;;;;;;;;;;;26.90;45.50;;;;;;1547238;75;696;-72
2021/06/19 03:33:56;;;;;;;;;;;26.90;45.40;;;;;;1557010;75;668;-73
2021/06/19 03:35:58;;;;;;;;;;;27.00;46.10;;;;;;1543747;76;696;-74
2021/06/19 03:38:00;;;;;;;;;;;26.90;45.50;;;;;;1550009;75;1160;-71
2021/06/19 03:40:02;;;;;;;;;;;27.00;46.00;;;;;;1540061;75;654;-72
2021/06/19 03:42:04;;;;;;;;;;;27.00;46.00;;;;;;1539024;75;1935;-73
2021/06/19 03:44:06;;;;;;;;;;;27.00;45.80;;;;;;1546816;75;713;-71
2021/06/19 03:46:08;;;;;;;;;;;27.00;45.90;;;;;;1542950;76;702;-72
2021/06/19 03:48:10;;;;;;;;;;;27.00;45.80;;;;;;1553847;75;1136;-69
2021/06/19 03:50:13;;;;;;;;;;;27.00;45.80;;;;;;1546761;75;662;-73
2021/06/19 03:52:15;;;;;;;;;;;26.90;45.70;;;;;;1546381;75;773;-76
2021/06/19 03:54:17;;;;;;;;;;;26.90;45.50;;;;;;1543592;75;719;-72
2021/06/19 03:56:19;;;;;;;;;;;27.00;46.00;;;;;;1517375;77;710;-72
2021/06/19 03:58:20;;;;;;;;;;;26.90;45.30;;;;;;1524792;76;1111;-72
2021/06/19 04:00:22;;;;;;;;;;;27.00;46.00;;;;;;1519877;77;1930;-72
2021/06/19 04:02:24;;;;;;;;;;;26.90;45.30;;;;;;1517228;77;746;-74
2021/06/19 04:04:26;;;;;;;;;;;27.00;45.90;;;;;;1546568;75;709;-74
2021/06/19 04:06:28;;;;;;;;;;;27.00;45.90;;;;;;1527439;77;725;-75
2021/06/19 04:08:30;;;;;;;;;;;26.90;45.30;;;;;;1509946;77;1154;-75
2021/06/19 04:10:32;;;;;;;;;;;26.90;45.30;;;;;;1548693;76;856;-72
2021/06/19 04:12:34;;;;;;;;;;;27.00;46.00;;;;;;1541431;75;717;-74
2021/06/19 04:14:36;;;;;;;;;;;27.00;46.00;;;;;;1550946;75;839;-74
2021/06/19 04:16:38;;;;;;;;;;;27.00;46.00;;;;;;1547290;75;714;-73
2021/06/19 04:18:39;;;;;;;;;;;26.90;45.20;;;;;;1561280;74;1108;-75
2021/06/19 04:20:41;;;;;;;;;;;26.90;45.40;;;;;;1547065;75;1938;-76
2021/06/19 04:22:43;;;;;;;;;;;26.90;45.30;;;;;;1547738;75;741;-78
2021/06/19 04:24:45;;;;;;;;;;;27.00;45.90;;;;;;1550177;75;693;-76
2021/06/19 04:26:47;;;;;;;;;;;27.00;46.10;;;;;;1546408;75;774;-75
2021/06/19 04:28:49;;;;;;;;;;;26.90;45.70;;;;;;1544504;76;1116;-75
2021/06/19 04:30:51;;;;;;;;;;;26.90;45.60;;;;;;1547625;75;729;-78
2021/06/19 04:32:53;;;;;;;;;;;26.90;45.70;;;;;;1548905;75;698;-75
2021/06/19 04:34:55;;;;;;;;;;;26.90;45.70;;;;;;1545400;75;724;-76
2021/06/19 04:36:57;;;;;;;;;;;26.90;45.70;;;;;;1555668;75;702;-76
2021/06/19 04:38:58;;;;;;;;;;;27.00;46.30;;;;;;1557053;75;1112;-77
2021/06/19 04:41:10;;;;;;;;;;;26.90;45.70;;;;;;1545292;75;1930;-77
2021/06/19 04:43:08;;;;;;;;;;;26.90;45.70;;;;;;1554952;75;1573;-77
2021/06/19 04:45:11;;;;;;;;;;;26.90;45.70;;;;;;1542816;75;1945;-71
2021/06/19 04:47:13;;;;;;;;;;;26.90;46.10;;;;;;1527442;76;781;-72
2021/06/19 04:49:14;;;;;;;;;;;27.00;46.90;;;;;;1513523;77;1100;-71
2021/06/19 04:51:16;;;;;;;;;;;27.00;47.00;;;;;;1528616;76;713;-71
2021/06/19 04:53:18;;;;;;;;;;;26.90;46.20;;;;;;1551807;76;701;-73
2021/06/19 04:55:20;;;;;;;;;;;27.00;46.80;;;;;;1547995;75;700;-74
2021/06/19 04:57:22;;;;;;;;;;;27.00;46.80;;;;;;1549262;75;742;-73
2021/06/19 04:59:24;;;;;;;;;;;27.00;46.70;;;;;;1537272;73;225425;-61
2021/06/19 05:01:27;;;;;;;;;;;27.00;46.60;;;;;;1569211;73;1952;-59
2021/06/19 05:03:29;;;;;;;;;;;26.90;46.30;;;;;;1624501;71;753;-60
2021/06/19 05:05:32;;;;;;;;;;;27.00;46.80;;;;;;1626650;71;790;-60
2021/06/19 05:07:35;;;;;;;;;;;27.00;46.80;;;;;;1618193;71;800;-60
2021/06/19 05:09:37;;;;;;;;;;;27.00;46.80;;;;;;1626891;71;791;-59
2021/06/19 05:11:38;;;;;;;;;;;27.00;46.80;;;;;;1631898;71;1110;-59
2021/06/19 05:13:40;;;;;;;;;;;27.00;46.80;;;;;;1635015;71;710;-58
2021/06/19 05:15:42;;;;;;;;;;;26.90;46.10;;;;;;1624474;71;777;-57
2021/06/19 05:17:44;;;;;;;;;;;27.00;46.70;;;;;;1625167;71;810;-57
2021/06/19 05:19:46;;;;;;;;;;;27.00;46.90;;;;;;1632392;71;827;-58
2021/06/19 05:21:48;;;;;;;;;;;27.00;46.70;;;;;;1634136;71;1940;-60
2021/06/19 05:23:50;;;;;;;;;;;27.00;47.10;;;;;;1633018;71;768;-59
2021/06/19 05:25:52;;;;;;;;;;;27.00;47.10;;;;;;1635095;72;774;-56
2021/06/19 05:27:53;;;;;;;;;;;27.00;47.00;;;;;;1638929;71;715;-57
2021/06/19 05:29:55;;;;;;;;;;;27.00;47.00;;;;;;1637202;71;750;-57
2021/06/19 05:31:57;;;;;;;;;;;27.00;47.00;;;;;;1634538;71;1086;-60
2021/06/19 05:33:59;;;;;;;;;;;27.00;46.90;;;;;;1635870;71;787;-58
2021/06/19 05:36:01;;;;;;;;;;;27.00;46.80;;;;;;1632602;71;806;-59
2021/06/19 05:38:03;;;;;;;;;;;27.00;46.90;;;;;;1637388;71;834;-61
2021/06/19 05:40:05;;;;;;;;;;;27.00;46.90;;;;;;1632645;71;816;-60
2021/06/19 05:42:07;;;;;;;;;;;27.00;46.90;;;;;;1629833;71;1952;-61
2021/06/19 05:44:09;;;;;;;;;;;27.00;46.90;;;;;;1635798;72;781;-60
2021/06/19 05:46:11;;;;;;;;;;;27.00;47.20;;;;;;1629869;71;766;-58
2021/06/19 05:48:13;;;;;;;;;;;27.00;47.20;;;;;;1626881;71;891;-58
2021/06/19 05:50:15;;;;;;;;;;;27.10;47.70;;;;;;1636041;71;797;-55
2021/06/19 05:52:18;;;;;;;;;;;27.00;47.90;;;;;;1631730;71;1102;-57
2021/06/19 05:54:20;;;;;;;;;;;27.00;48.10;;;;;;1630979;71;739;-57
2021/06/19 05:56:22;;;;;;;;;;;27.00;47.70;;;;;;1635771;71;740;-60
2021/06/19 05:58:24;;;;;;;;;;;27.00;47.60;;;;;;1623144;71;756;-60
2021/06/19 06:00:27;;;;;;;;;;;27.10;47.50;;;;;;1629294;71;789;-59
2021/06/19 06:02:29;;;;;;;;;;;27.10;47.50;;;;;;1630579;71;1928;-61
2021/06/19 06:04:31;;;;;;;;;;;27.10;47.80;;;;;;1614993;71;750;-59
2021/06/19 06:06:33;;;;;;;;;;;27.10;47.50;;;;;;1633582;71;751;-59
2021/06/19 06:08:35;;;;;;;;;;;27.00;47.50;;;;;;1630650;71;771;-59
2021/06/19 06:10:37;;;;;;;;;;;27.00;47.70;;;;;;1637345;71;1110;-59
2021/06/19 06:12:39;;;;;;;;;;;26.90;47.00;;;;;;1624043;71;743;-58
2021/06/19 06:14:41;;;;;;;;;;;26.90;48.00;;;;;;1636989;71;752;-57
2021/06/19 06:16:43;;;;;;;;;;;26.90;47.30;;;;;;1626985;71;729;-60
2021/06/19 06:18:45;;;;;;;;;;;27.00;48.40;;;;;;1634453;71;711;-61
2021/06/19 06:20:47;;;;;;;;;;;27.00;47.70;;;;;;1631620;71;1139;-59
2021/06/19 06:22:51;;;;;;;;;;;26.90;47.50;;;;;;1631389;71;1940;-58
2021/06/19 06:24:52;;;;;;;;;;;27.10;48.10;;;;;;1628852;71;1461;-59
2021/06/19 06:26:54;;;;;;;;;;;27.00;48.00;;;;;;1638247;72;878;-58
2021/06/19 06:28:56;;;;;;;;;;;27.00;47.90;;;;;;1637985;71;733;-59
2021/06/19 06:30:58;;;;;;;;;;;27.00;47.80;;;;;;1618563;71;1138;-59
2021/06/19 06:33:00;;;;;;;;;;;27.00;47.80;;;;;;1633224;71;762;-58
2021/06/19 06:35:02;;;;;;;;;;;27.00;47.80;;;;;;1638750;71;706;-59
2021/06/19 06:37:06;;;;;;;;;;;27.00;47.70;;;;;;1633185;71;820;-58
2021/06/19 06:39:07;;;;;;;;;;;26.90;47.00;;;;;;1618050;71;1085;-58
2021/06/19 06:41:11;;;;;;;;;;;27.00;47.60;;;;;;1633683;71;1106;-58
2021/06/19 06:43:13;;;;;;;;;;;27.00;47.60;;;;;;1638950;71;1897;-60
2021/06/19 06:45:15;;;;;;;;;;;27.00;47.70;;;;;;1632746;71;725;-61
2021/06/19 06:47:16;;;;;;;;;;;27.00;47.80;;;;;;1631099;71;683;-59
2021/06/19 06:49:18;;;;;;;;;;;27.00;47.70;;;;;;1631424;71;667;-58
2021/06/19 06:51:20;;;;;;;;;;;27.00;47.70;;;;;;1636350;71;1102;-59
2021/06/19 06:53:22;;;;;;;;;;;27.00;47.60;;;;;;1626467;71;712;-59
2021/06/19 06:55:24;;;;;;;;;;;27.00;47.60;;;;;;1634934;71;775;-58
2021/06/19 06:57:26;;;;;;;;;;;27.00;47.60;;;;;;1621829;71;790;-58
2021/06/19 06:59:28;;;;;;;;;;;26.90;46.90;;;;;;1632577;71;805;-57
2021/06/19 07:01:30;;;;;;;;;;;26.90;48.10;;;;;;1634249;71;1945;-59
2021/06/19 07:03:31;;;;;;;;;;;27.00;49.00;;;;;;1645736;71;678;-59
2021/06/19 07:05:33;;;;;;;;;;;27.00;48.40;;;;;;1622205;71;702;-58
2021/06/19 07:07:38;;;;;;;;;;;26.90;47.40;;;;;;1624938;71;787;-57
2021/06/19 07:09:40;;;;;;;;;;;26.90;48.10;;;;;;1627892;71;968;-57
2021/06/19 07:11:42;;;;;;;;;;;26.80;47.80;;;;;;1634342;71;1194;-57
2021/06/19 07:13:44;;;;;;;;;;;26.80;48.30;;;;;;1626548;71;673;-57
2021/06/19 07:15:46;;;;;;;;;;;26.70;48.10;;;;;;1629186;71;784;-56
2021/06/19 07:17:48;;;;;;;;;;;26.80;48.10;;;;;;1635023;71;763;-57
2021/06/19 07:19:50;;;;;;;;;;;26.90;48.00;;;;;;1618282;71;771;-56
2021/06/19 07:21:52;;;;;;;;;;;26.90;47.90;;;;;;1619975;71;1919;-57
2021/06/19 07:23:54;;;;;;;;;;;26.90;47.80;;;;;;1626943;71;752;-56
2021/06/19 07:25:59;;;;;;;;;;;26.90;47.80;;;;;;1627516;71;730;-57
2021/06/19 07:28:01;;;;;;;;;;;26.90;47.60;;;;;;1627930;71;855;-58
2021/06/19 07:30:07;;;;;;;;;;;26.90;47.60;;;;;;1624760;71;791;-58
2021/06/19 07:32:09;;;;;;;;;;;26.90;47.50;;;;;;1623121;71;1134;-56
2021/06/19 07:34:10;;;;;;;;;;;26.90;47.60;;;;;;1624540;71;719;-59
2021/06/19 07:36:12;;;;;;;;;;;26.90;47.40;;;;;;1635583;71;699;-58
2021/06/19 07:38:14;;;;;;;;;;;26.90;47.30;;;;;;1612188;71;676;-59
2021/06/19 07:40:17;;;;;;;;;;;26.90;47.30;;;;;;1632169;71;730;-58
2021/06/19 07:42:18;;;;;;;;;;;26.80;47.20;;;;;;1633183;71;1904;-57
2021/06/19 07:44:20;;;;;;;;;;;26.90;47.30;;;;;;1632382;71;837;-58
2021/06/19 07:46:22;;;;;;;;;;;26.90;46.90;;;;;;1631587;71;775;-57
2021/06/19 07:48:24;;;;;;;;;;;26.90;46.70;;;;;;1625537;71;702;-58
2021/06/19 07:50:26;;;;;;;;;;;27.00;47.40;;;;;;1629210;71;689;-56
2021/06/19 07:52:28;;;;;;;;;;;27.00;46.80;;;;;;1623731;71;1075;-57
2021/06/19 07:54:30;;;;;;;;;;;27.10;46.50;;;;;;1630540;71;780;-57
2021/06/19 07:56:32;;;;;;;;;;;27.10;46.30;;;;;;1590094;72;1231;-59
2021/06/19 07:58:34;;;;;;;;;;;27.20;46.20;;;;;;1632626;71;697;-57
2021/06/19 08:00:35;;;;;;;;;;;27.20;46.00;;;;;;1620202;71;804;-60
2021/06/19 08:02:38;;;;;;;;;;;27.30;45.90;;;;;;1634941;71;1951;-60
2021/06/19 08:04:40;;;;;;;;;;;27.20;45.50;;;;;;1624794;71;950;-57
2021/06/19 08:06:41;;;;;;;;;;;27.20;45.50;;;;;;1613425;71;776;-58
2021/06/19 08:08:43;;;;;;;;;;;27.30;45.20;;;;;;1626456;71;747;-56
2021/06/19 08:10:45;;;;;;;;;;;27.30;45.20;;;;;;1621681;72;1140;-57
2021/06/19 08:12:47;;;;;;;;;;;27.30;45.20;;;;;;1632149;71;784;-56
2021/06/19 08:14:49;;;;;;;;;;;27.30;45.10;;;;;;1626017;71;685;-56
2021/06/19 08:16:53;;;;;;;;;;;27.30;45.00;;;;;;1630441;71;767;-55
2021/06/19 08:18:55;;;;;;;;;;;27.40;44.80;;;;;;1625688;71;1044;-55
2021/06/19 08:20:56;;;;;;;;;;;27.30;45.00;;;;;;1628664;71;1153;-58
2021/06/19 08:22:59;;;;;;;;;;;27.30;44.70;;;;;;1634467;71;1950;-58
2021/06/19 08:25:00;;;;;;;;;;;27.30;44.60;;;;;;1625347;71;744;-57
2021/06/19 08:27:02;;;;;;;;;;;27.40;44.60;;;;;;1628305;71;676;-57
2021/06/19 08:29:05;;;;;;;;;;;27.30;44.70;;;;;;1625056;71;766;-57
2021/06/19 08:31:07;;;;;;;;;;;27.30;44.80;;;;;;1628418;71;1133;-56
2021/06/19 08:33:09;;;;;;;;;;;27.20;44.90;;;;;;1624686;71;768;-56
2021/06/19 08:35:11;;;;;;;;;;;27.30;44.90;;;;;;1629126;71;712;-56
2021/06/19 08:37:13;;;;;;;;;;;27.40;44.70;;;;;;1627174;71;903;-57
2021/06/19 08:39:15;;;;;;;;;;;27.40;44.60;;;;;;1634229;71;808;-55
2021/06/19 08:41:17;;;;;;;;;;;27.30;44.60;;;;;;1632025;71;1210;-55
2021/06/19 08:43:19;;;;;;;;;;;27.40;44.70;;;;;;1633713;71;1939;-57
2021/06/19 08:45:21;;;;;;;;;;;27.40;44.50;;;;;;1625530;71;825;-57
2021/06/19 08:47:24;;;;;;;;;;;27.40;44.50;;;;;;1631645;71;838;-55
2021/06/19 08:49:26;;;;;;;;;;;27.40;44.40;;;;;;1623395;71;784;-54
2021/06/19 08:51:28;;;;;;;;;;;27.50;44.40;;;;;;1627938;71;1178;-54
2021/06/19 08:53:30;;;;;;;;;;;27.40;44.50;;;;;;1624438;71;688;-54
2021/06/19 08:55:32;;;;;;;;;;;27.50;44.40;;;;;;1629093;71;729;-56
2021/06/19 08:57:34;;;;;;;;;;;27.40;44.40;;;;;;1625457;71;696;-56
2021/06/19 08:59:36;;;;;;;;;;;27.40;44.50;;;;;;1632250;71;689;-57
2021/06/19 09:01:39;;;;;;;;;;;27.40;44.50;;;;;;1632128;71;1132;-57
2021/06/19 09:03:41;;;;;;;;;;;27.40;44.70;;;;;;1596903;72;2183;-58
2021/06/19 09:05:43;;;;;;;;;;;27.40;44.70;;;;;;1625837;71;709;-57
2021/06/19 09:07:47;;;;;;;;;;;27.40;44.60;;;;;;1634479;71;633;-55
2021/06/19 09:09:48;;;;;;;;;;;27.50;44.50;;;;;;1628143;71;774;-56
2021/06/19 09:11:51;;;;;;;;;;;27.40;44.40;;;;;;1629904;71;1141;-58
2021/06/19 09:14:00;;;;;;;;;;;27.40;44.60;;;;;;1629930;71;758;-53
2021/06/19 09:16:02;;;;;;;;;;;27.40;44.60;;;;;;1636195;71;770;-58
2021/06/19 09:18:04;;;;;;;;;;;27.50;44.50;;;;;;1635278;71;1088;-56
2021/06/19 09:20:07;;;;;;;;;;;27.60;44.50;;;;;;1627937;71;726;-59
2021/06/19 09:22:09;;;;;;;;;;;27.50;44.50;;;;;;1632879;71;1122;-58
2021/06/19 09:24:11;;;;;;;;;;;27.50;44.50;;;;;;1629261;71;1932;-54
2021/06/19 09:26:15;;;;;;;;;;;27.40;45.00;;;;;;1627897;71;776;-58
2021/06/19 09:28:16;;;;;;;;;;;27.40;44.90;;;;;;1626682;71;802;-57
2021/06/19 09:30:19;;;;;;;;;;;27.40;44.70;;;;;;1626815;71;657;-56
2021/06/19 09:32:22;;;;;;;;;;;27.40;44.70;;;;;;1628466;71;1147;-56
2021/06/19 09:34:25;;;;;;;;;;;27.50;44.80;;;;;;1622597;71;940;-53
2021/06/19 09:36:37;;;;;;;;;;;27.50;45.00;;;;;;1634695;71;655;-55
2021/06/19 09:38:39;;;;;;;;;;;27.50;45.10;;;;;;1632866;71;827;-57
2021/06/19 09:40:44;;;;;;;;;;;27.50;45.30;;;;;;1633687;71;1149;-55
2021/06/19 09:42:46;;;;;;;;;;;27.50;45.20;;;;;;1624289;71;1931;-59
2021/06/19 09:44:50;;;;;;;;;;;27.60;45.20;;;;;;1634336;71;759;-57
2021/06/19 09:46:58;;;;;;;;;;;27.60;45.50;;;;;;1630731;71;736;-58
2021/06/19 09:49:13;;;;;;;;;;;27.50;45.90;;;;;;1627925;71;720;-59
2021/06/19 09:51:19;;;;;;;;;;;27.60;45.80;;;;;;1625676;72;1171;-59
2021/06/19 09:53:21;;;;;;;;;;;27.60;45.50;;;;;;1617931;71;696;-58
2021/06/19 09:55:22;;;;;;;;;;;27.60;45.50;;;;;;1638111;71;791;-57
2021/06/19 09:57:26;;;;;;;;;;;27.70;45.60;;;;;;1621640;71;766;-58
2021/06/19 09:59:34;;;;;;;;;;;27.70;45.50;;;;;;1627105;72;1679;-58
2021/06/19 10:01:37;;;;;;;;;;;27.60;45.00;;;;;;1624791;71;1141;-56
2021/06/19 10:03:52;;;;;;;;;;;27.60;45.70;;;;;;1632369;71;1916;-57
2021/06/19 10:05:54;;;;;;;;;;;27.50;45.70;;;;;;1622763;71;939;-57
2021/06/19 10:07:56;;;;;;;;;;;27.70;45.70;;;;;;1632495;71;735;-60
2021/06/19 10:09:58;;;;;;;;;;;27.60;45.50;;;;;;1630058;71;716;-58
2021/06/19 10:12:00;;;;;;;;;;;27.60;45.50;;;;;;1625766;71;1134;-58
2021/06/19 10:14:02;;;;;;;;;;;27.70;45.60;;;;;;1635561;71;770;-60
2021/06/19 10:16:04;;;;;;;;;;;27.60;45.70;;;;;;1633023;71;773;-59
2021/06/19 10:18:06;;;;;;;;;;;27.60;45.50;;;;;;1634257;71;732;-59
2021/06/19 10:20:09;;;;;;;;;;;27.60;45.60;;;;;;1631696;71;775;-58
2021/06/19 10:22:11;;;;;;;;;;;27.50;46.00;;;;;;1628356;71;1624;-58
2021/06/19 10:24:13;;;;;;;;;;;27.50;46.00;;;;;;1627925;72;1935;-59
2021/06/19 10:26:21;;;;;;;;;;;27.60;45.80;;;;;;1613468;71;727;-57
2021/06/19 10:28:19;;;;;;;;;;;27.60;45.70;;;;;;1630896;71;1730;-60
2021/06/19 10:30:22;;;;;;;;;;;27.70;45.50;;;;;;1626835;71;671;-58
2021/06/19 10:32:40;;;;;;;;;;;27.60;46.40;;;;;;1632580;71;1070;-59
2021/06/19 10:34:43;;;;;;;;;;;27.60;46.70;;;;;;1629328;71;852;-56
2021/06/19 10:36:45;;;;;;;;;;;27.60;46.70;;;;;;1631256;71;1655;-60
2021/06/19 10:38:48;;;;;;;;;;;27.50;46.50;;;;;;1618717;71;744;-58
2021/06/19 10:40:54;;;;;;;;;;;27.50;46.90;;;;;;1625120;71;1118;-57
2021/06/19 10:42:57;;;;;;;;;;;27.50;47.00;;;;;;1624992;71;1913;-61
2021/06/19 10:45:03;;;;;;;;;;;27.40;46.80;;;;;;1585304;72;1173;-58
2021/06/19 10:47:05;;;;;;;;;;;27.40;46.80;;;;;;1631942;71;806;-58
2021/06/19 10:49:20;;;;;;;;;;;27.50;46.50;;;;;;1630870;71;780;-57
2021/06/19 10:51:26;;;;;;;;;;;27.50;46.70;;;;;;1630440;71;1166;-57
2021/06/19 10:53:29;;;;;;;;;;;27.50;46.40;;;;;;1627111;71;717;-59
2021/06/19 10:55:31;;;;;;;;;;;27.60;46.30;;;;;;1628655;71;758;-58
2021/06/19 10:57:47;;;;;;;;;;;27.50;46.50;;;;;;1633261;71;733;-55
2021/06/19 10:59:49;;;;;;;;;;;27.50;46.30;;;;;;1585351;71;218114;-77
2021/06/19 11:01:51;;;;;;;;;;;27.50;46.60;;;;;;1548930;75;1252;-76
2021/06/19 11:03:56;;;;;;;;;;;27.40;46.70;;;;;;1587141;74;1931;-73
2021/06/19 11:05:57;;;;;;;;;;;27.40;46.70;;;;;;1581954;74;1609;-75
2021/06/19 11:07:59;;;;;;;;;;;27.50;46.40;;;;;;1580171;74;724;-76
2021/06/19 11:10:00;;;;;;;;;;;27.60;46.00;;;;;;1614822;72;1209;-75
2021/06/19 11:12:03;;;;;;;;;;;27.60;45.90;;;;;;1627857;72;709;-75
2021/06/19 11:14:04;;;;;;;;;;;27.50;45.90;;;;;;1624109;72;728;-79
2021/06/19 11:16:07;;;;;;;;;;;27.60;45.90;;;;;;1622138;72;707;-75
2021/06/19 11:18:09;;;;;;;;;;;27.60;45.80;;;;;;1621715;72;1130;-74
2021/06/19 11:20:12;;;;;;;;;;;27.70;46.00;;;;;;1618961;72;738;-76
2021/06/19 11:22:27;;;;;;;;;;;27.50;46.10;;;;;;1629751;72;743;-76
2021/06/19 11:24:29;;;;;;;;;;;27.60;45.80;;;;;;1613868;72;1915;-78
2021/06/19 11:28:53;;;;;;;;;;;27.60;46.30;;;;;;1607201;71;1113;-79
2021/06/19 11:30:55;;;;;;;;;;;27.60;46.50;;;;;;1615403;72;736;-75
2021/06/19 11:32:58;;;;;;;;;;;27.50;46.30;;;;;;1609863;72;699;-75
2021/06/19 11:35:04;;;;;;;;;;;27.50;46.20;;;;;;1620667;72;983;-76
2021/06/19 11:37:06;;;;;;;;;;;27.50;46.80;;;;;;1614070;72;727;-78
2021/06/19 11:39:09;;;;;;;;;;;27.50;46.60;;;;;;1635400;72;1067;-78
2021/06/19 11:41:11;;;;;;;;;;;27.40;47.30;;;;;;1634072;72;717;-76
2021/06/19 11:43:13;;;;;;;;;;;27.40;47.30;;;;;;1615568;72;1927;-76
2021/06/19 11:45:15;;;;;;;;;;;27.40;47.50;;;;;;1630084;72;635;-77
2021/06/19 11:47:17;;;;;;;;;;;27.40;47.30;;;;;;1618581;72;686;-76
2021/06/19 11:49:20;;;;;;;;;;;27.50;47.00;;;;;;1626919;71;1125;-76
2021/06/19 11:51:23;;;;;;;;;;;27.40;46.80;;;;;;1630731;72;1127;-76
2021/06/19 11:53:28;;;;;;;;;;;27.60;46.40;;;;;;1621355;72;683;-76
2021/06/19 11:55:30;;;;;;;;;;;27.50;46.50;;;;;;1611035;72;665;-77
2021/06/19 11:57:32;;;;;;;;;;;27.60;46.50;;;;;;1622162;72;721;-75
2021/06/19 11:59:34;;;;;;;;;;;27.50;46.40;;;;;;1620631;72;1150;-72
2021/06/19 12:01:37;;;;;;;;;;;27.50;46.50;;;;;;1619271;72;688;-78
2021/06/19 12:03:39;;;;;;;;;;;27.50;47.10;;;;;;1607373;72;1915;-75
2021/06/19 12:05:42;;;;;;;;;;;27.40;47.00;;;;;;1614380;72;700;-76
2021/06/19 12:07:45;;;;;;;;;;;27.40;47.30;;;;;;1615041;72;931;-77
2021/06/19 12:09:51;;;;;;;;;;;27.40;47.20;;;;;;1612504;72;1151;-75
2021/06/19 12:11:52;;;;;;;;;;;27.40;47.30;;;;;;1608382;72;1095;-76